sensor_id;sensor_type;location;lat;lon;timestamp;temperature;humidity
13346;DHT22;6742;48.036;15.780;2022-10-31T00:00:00;11.30;99.90
13346;DHT22;6742;48.036;15.780;2022-10-31T00:02:28;11.30;99.90
13346;DHT22;6742;48.036;15.780;2022-10-31T00:04:55;11.20;99.90
13346;DHT22;6742;48.036;15.780;2022-10-31T00:07:22;11.20;99.90
13346;DHT22;6742;48.036;15.780;2022-10-31T00:09:49;11.20;99.90
13346;DHT22;6742;48.036;15.780;2022-10-31T00:12:15;11.20;99.90
13346;DHT22;6742;48.036;15.780;2022-10-31T00:14:42;11.20;99.90
13346;DHT22;6742;48.036;15.780;2022-10-31T00:17:09;11.20;99.90
13346;DHT22;6742;48.036;15.780;2022-10-31T00:19:37;11.20;99.90
13346;DHT22;6742;48.036;15.780;2022-10-31T00:22:03;11.20;99.90
13346;DHT22;6742;48.036;15.780;2022-10-31T00:24:30;11.10;99.90
13346;DHT22;6742;48.036;15.780;2022-10-31T00:26:57;11.10;99.90
13346;DHT22;6742;48.036;15.780;2022-10-31T00:29:23;11.00;99.90
13346;DHT22;6742;48.036;15.780;2022-10-31T00:31:51;11.10;99.90
13346;DHT22;6742;48.036;15.780;2022-10-31T00:34:18;11.10;99.90
13346;DHT22;6742;48.036;15.780;2022-10-31T00:36:49;11.10;99.90
13346;DHT22;6742;48.036;15.780;2022-10-31T00:39:15;11.10;99.90
13346;DHT22;6742;48.036;15.780;2022-10-31T00:41:42;11.10;99.90
13346;DHT22;6742;48.036;15.780;2022-10-31T00:44:09;11.10;99.90
13346;DHT22;6742;48.036;15.780;2022-10-31T00:46:36;11.10;99.90
13346;DHT22;6742;48.036;15.780;2022-10-31T00:49:02;11.10;99.90
13346;DHT22;6742;48.036;15.780;2022-10-31T00:51:29;11.10;99.90
13346;DHT22;6742;48.036;15.780;2022-10-31T00:53:57;11.20;99.90
13346;DHT22;6742;48.036;15.780;2022-10-31T00:56:24;11.10;99.90
13346;DHT22;6742;48.036;15.780;2022-10-31T00:58:50;11.10;99.90
13346;DHT22;6742;48.036;15.780;2022-10-31T01:01:17;11.10;99.90
13346;DHT22;6742;48.036;15.780;2022-10-31T01:03:44;11.10;99.90
13346;DHT22;6742;48.036;15.780;2022-10-31T01:06:11;11.10;99.90
13346;DHT22;6742;48.036;15.780;2022-10-31T01:08:38;11.10;99.90
13346;DHT22;6742;48.036;15.780;2022-10-31T01:11:08;11.10;99.90
13346;DHT22;6742;48.036;15.780;2022-10-31T01:13:36;11.10;99.90
13346;DHT22;6742;48.036;15.780;2022-10-31T01:16:03;11.10;99.90
13346;DHT22;6742;48.036;15.780;2022-10-31T01:18:31;11.10;99.90
13346;DHT22;6742;48.036;15.780;2022-10-31T01:21:01;11.10;99.90
13346;DHT22;6742;48.036;15.780;2022-10-31T01:23:27;11.20;99.90
13346;DHT22;6742;48.036;15.780;2022-10-31T01:26:05;11.20;99.90
13346;DHT22;6742;48.036;15.780;2022-10-31T01:28:34;11.20;99.90
13346;DHT22;6742;48.036;15.780;2022-10-31T01:31:02;11.20;99.90
13346;DHT22;6742;48.036;15.780;2022-10-31T01:33:29;11.20;99.90
13346;DHT22;6742;48.036;15.780;2022-10-31T01:35:55;11.20;99.90
13346;DHT22;6742;48.036;15.780;2022-10-31T01:38:22;11.20;99.90
13346;DHT22;6742;48.036;15.780;2022-10-31T01:40:49;11.20;99.90
13346;DHT22;6742;48.036;15.780;2022-10-31T01:43:16;11.20;99.90
13346;DHT22;6742;48.036;15.780;2022-10-31T01:45:45;11.20;99.90
13346;DHT22;6742;48.036;15.780;2022-10-31T01:48:13;11.10;99.90
13346;DHT22;6742;48.036;15.780;2022-10-31T01:50:40;11.10;99.90
13346;DHT22;6742;48.036;15.780;2022-10-31T01:53:09;11.10;99.90
13346;DHT22;6742;48.036;15.780;2022-10-31T01:55:37;11.10;99.90
13346;DHT22;6742;48.036;15.780;2022-10-31T01:58:06;11.20;99.90
13346;DHT22;6742;48.036;15.780;2022-10-31T02:00:33;11.20;99.90
13346;DHT22;6742;48.036;15.780;2022-10-31T02:03:01;11.20;99.90
13346;DHT22;6742;48.036;15.780;2022-10-31T02:05:29;11.20;99.90
13346;DHT22;6742;48.036;15.780;2022-10-31T02:07:57;11.20;99.90
13346;DHT22;6742;48.036;15.780;2022-10-31T02:10:25;11.20;99.90
13346;DHT22;6742;48.036;15.780;2022-10-31T02:12:51;11.20;99.90
13346;DHT22;6742;48.036;15.780;2022-10-31T02:15:19;11.20;99.90
13346;DHT22;6742;48.036;15.780;2022-10-31T02:17:46;11.20;99.90
13346;DHT22;6742;48.036;15.780;2022-10-31T02:20:15;11.10;99.90
13346;DHT22;6742;48.036;15.780;2022-10-31T02:22:51;11.10;99.90
13346;DHT22;6742;48.036;15.780;2022-10-31T02:25:30;11.10;99.90
13346;DHT22;6742;48.036;15.780;2022-10-31T02:28:04;11.10;99.90
13346;DHT22;6742;48.036;15.780;2022-10-31T02:30:36;11.10;99.90
13346;DHT22;6742;48.036;15.780;2022-10-31T02:33:11;11.10;99.90
13346;DHT22;6742;48.036;15.780;2022-10-31T02:35:45;11.10;99.90
13346;DHT22;6742;48.036;15.780;2022-10-31T02:38:18;11.10;99.90
13346;DHT22;6742;48.036;15.780;2022-10-31T02:40:49;11.10;99.90
13346;DHT22;6742;48.036;15.780;2022-10-31T02:43:19;11.10;99.90
13346;DHT22;6742;48.036;15.780;2022-10-31T02:45:48;11.10;99.90
13346;DHT22;6742;48.036;15.780;2022-10-31T02:48:19;11.10;99.90
13346;DHT22;6742;48.036;15.780;2022-10-31T02:50:47;11.10;99.90
13346;DHT22;6742;48.036;15.780;2022-10-31T02:53:15;11.00;99.90
13346;DHT22;6742;48.036;15.780;2022-10-31T02:55:44;11.00;99.90
13346;DHT22;6742;48.036;15.780;2022-10-31T02:58:13;11.00;99.90
13346;DHT22;6742;48.036;15.780;2022-10-31T03:00:41;11.00;99.90
13346;DHT22;6742;48.036;15.780;2022-10-31T03:03:12;11.00;99.90
13346;DHT22;6742;48.036;15.780;2022-10-31T03:05:45;11.00;99.90
13346;DHT22;6742;48.036;15.780;2022-10-31T03:08:15;11.00;99.90
13346;DHT22;6742;48.036;15.780;2022-10-31T03:10:45;11.00;99.90
13346;DHT22;6742;48.036;15.780;2022-10-31T03:13:14;11.00;99.90
13346;DHT22;6742;48.036;15.780;2022-10-31T03:15:44;10.90;99.90
13346;DHT22;6742;48.036;15.780;2022-10-31T03:18:12;11.00;99.90
13346;DHT22;6742;48.036;15.780;2022-10-31T03:20:41;10.90;99.90
13346;DHT22;6742;48.036;15.780;2022-10-31T03:23:11;10.90;99.90
13346;DHT22;6742;48.036;15.780;2022-10-31T03:25:40;10.90;99.90
13346;DHT22;6742;48.036;15.780;2022-10-31T03:28:07;10.90;99.90
13346;DHT22;6742;48.036;15.780;2022-10-31T03:30:35;10.90;99.90
13346;DHT22;6742;48.036;15.780;2022-10-31T03:33:03;10.90;99.90
13346;DHT22;6742;48.036;15.780;2022-10-31T03:35:31;10.90;99.90
13346;DHT22;6742;48.036;15.780;2022-10-31T03:37:59;10.80;99.90
13346;DHT22;6742;48.036;15.780;2022-10-31T03:40:28;10.80;99.90
13346;DHT22;6742;48.036;15.780;2022-10-31T03:42:57;10.70;99.90
13346;DHT22;6742;48.036;15.780;2022-10-31T03:45:25;10.70;99.90
13346;DHT22;6742;48.036;15.780;2022-10-31T03:47:52;10.80;99.90
13346;DHT22;6742;48.036;15.780;2022-10-31T03:50:20;10.80;99.90
13346;DHT22;6742;48.036;15.780;2022-10-31T03:52:48;10.70;99.90
13346;DHT22;6742;48.036;15.780;2022-10-31T03:55:17;10.70;99.90
13346;DHT22;6742;48.036;15.780;2022-10-31T03:57:45;10.70;99.90
13346;DHT22;6742;48.036;15.780;2022-10-31T04:00:15;10.70;99.90
13346;DHT22;6742;48.036;15.780;2022-10-31T04:02:42;10.60;99.90
13346;DHT22;6742;48.036;15.780;2022-10-31T04:05:10;10.60;99.90
13346;DHT22;6742;48.036;15.780;2022-10-31T04:07:39;10.60;99.90
13346;DHT22;6742;48.036;15.780;2022-10-31T04:10:07;10.60;99.90
13346;DHT22;6742;48.036;15.780;2022-10-31T04:12:35;10.60;99.90
13346;DHT22;6742;48.036;15.780;2022-10-31T04:15:05;10.60;99.90
13346;DHT22;6742;48.036;15.780;2022-10-31T04:17:33;10.60;99.90
13346;DHT22;6742;48.036;15.780;2022-10-31T04:20:01;10.60;99.90
13346;DHT22;6742;48.036;15.780;2022-10-31T04:22:28;10.60;99.90
13346;DHT22;6742;48.036;15.780;2022-10-31T04:24:54;10.50;99.90
13346;DHT22;6742;48.036;15.780;2022-10-31T04:27:21;10.50;99.90
13346;DHT22;6742;48.036;15.780;2022-10-31T04:29:48;10.50;99.90
13346;DHT22;6742;48.036;15.780;2022-10-31T04:32:16;10.50;99.90
13346;DHT22;6742;48.036;15.780;2022-10-31T04:34:43;10.50;99.90
13346;DHT22;6742;48.036;15.780;2022-10-31T04:37:10;10.50;99.90
13346;DHT22;6742;48.036;15.780;2022-10-31T04:39:36;10.50;99.90
13346;DHT22;6742;48.036;15.780;2022-10-31T04:42:03;10.50;99.90
13346;DHT22;6742;48.036;15.780;2022-10-31T04:44:30;10.50;99.90
13346;DHT22;6742;48.036;15.780;2022-10-31T04:46:56;10.50;99.90
13346;DHT22;6742;48.036;15.780;2022-10-31T04:49:24;10.50;99.90
13346;DHT22;6742;48.036;15.780;2022-10-31T04:51:51;10.50;99.90
13346;DHT22;6742;48.036;15.780;2022-10-31T04:54:18;10.50;99.90
13346;DHT22;6742;48.036;15.780;2022-10-31T04:56:45;10.40;99.90
13346;DHT22;6742;48.036;15.780;2022-10-31T04:59:11;10.50;99.90
13346;DHT22;6742;48.036;15.780;2022-10-31T05:01:38;10.40;99.90
13346;DHT22;6742;48.036;15.780;2022-10-31T05:04:05;10.40;99.90
13346;DHT22;6742;48.036;15.780;2022-10-31T05:06:33;10.40;99.90
13346;DHT22;6742;48.036;15.780;2022-10-31T05:08:59;10.30;99.90
13346;DHT22;6742;48.036;15.780;2022-10-31T05:11:26;10.30;99.90
13346;DHT22;6742;48.036;15.780;2022-10-31T05:13:53;10.30;99.90
13346;DHT22;6742;48.036;15.780;2022-10-31T05:16:20;10.30;99.90
13346;DHT22;6742;48.036;15.780;2022-10-31T05:18:46;10.30;99.90
13346;DHT22;6742;48.036;15.780;2022-10-31T05:21:13;10.30;99.90
13346;DHT22;6742;48.036;15.780;2022-10-31T05:23:41;10.30;99.90
13346;DHT22;6742;48.036;15.780;2022-10-31T05:26:08;10.20;99.90
13346;DHT22;6742;48.036;15.780;2022-10-31T05:28:34;10.20;99.90
13346;DHT22;6742;48.036;15.780;2022-10-31T05:31:01;10.20;99.90
13346;DHT22;6742;48.036;15.780;2022-10-31T05:33:28;10.20;99.90
13346;DHT22;6742;48.036;15.780;2022-10-31T05:35:55;10.20;99.90
13346;DHT22;6742;48.036;15.780;2022-10-31T05:38:21;10.20;99.90
13346;DHT22;6742;48.036;15.780;2022-10-31T05:40:49;10.10;99.90
13346;DHT22;6742;48.036;15.780;2022-10-31T05:43:19;10.10;99.90
13346;DHT22;6742;48.036;15.780;2022-10-31T05:45:46;10.10;99.90
13346;DHT22;6742;48.036;15.780;2022-10-31T05:48:12;10.10;99.90
13346;DHT22;6742;48.036;15.780;2022-10-31T05:50:39;10.10;99.90
13346;DHT22;6742;48.036;15.780;2022-10-31T05:53:07;10.10;99.90
13346;DHT22;6742;48.036;15.780;2022-10-31T05:55:34;10.10;99.90
13346;DHT22;6742;48.036;15.780;2022-10-31T05:58:02;10.00;99.90
13346;DHT22;6742;48.036;15.780;2022-10-31T06:00:29;10.10;99.90
13346;DHT22;6742;48.036;15.780;2022-10-31T06:02:58;10.10;99.90
13346;DHT22;6742;48.036;15.780;2022-10-31T06:05:25;10.10;99.90
13346;DHT22;6742;48.036;15.780;2022-10-31T06:07:52;10.10;99.90
13346;DHT22;6742;48.036;15.780;2022-10-31T06:10:19;10.10;99.90
13346;DHT22;6742;48.036;15.780;2022-10-31T06:12:46;10.10;99.90
13346;DHT22;6742;48.036;15.780;2022-10-31T06:15:14;10.20;99.90
13346;DHT22;6742;48.036;15.780;2022-10-31T06:17:41;10.30;99.90
13346;DHT22;6742;48.036;15.780;2022-10-31T06:20:08;10.20;99.90
13346;DHT22;6742;48.036;15.780;2022-10-31T06:22:35;10.30;99.90
13346;DHT22;6742;48.036;15.780;2022-10-31T06:25:02;10.30;99.90
13346;DHT22;6742;48.036;15.780;2022-10-31T06:27:29;10.30;99.90
13346;DHT22;6742;48.036;15.780;2022-10-31T06:29:55;10.30;99.90
13346;DHT22;6742;48.036;15.780;2022-10-31T06:32:23;10.40;99.90
13346;DHT22;6742;48.036;15.780;2022-10-31T06:34:50;10.60;99.90
13346;DHT22;6742;48.036;15.780;2022-10-31T06:37:17;10.90;99.90
13346;DHT22;6742;48.036;15.780;2022-10-31T06:39:43;11.00;99.90
13346;DHT22;6742;48.036;15.780;2022-10-31T06:42:10;11.20;99.90
13346;DHT22;6742;48.036;15.780;2022-10-31T06:44:37;11.20;99.90
13346;DHT22;6742;48.036;15.780;2022-10-31T06:47:04;11.10;99.90
13346;DHT22;6742;48.036;15.780;2022-10-31T06:49:33;11.00;99.90
13346;DHT22;6742;48.036;15.780;2022-10-31T06:51:59;10.90;99.90
13346;DHT22;6742;48.036;15.780;2022-10-31T06:54:26;10.80;99.90
13346;DHT22;6742;48.036;15.780;2022-10-31T06:56:55;10.80;99.90
13346;DHT22;6742;48.036;15.780;2022-10-31T06:59:22;10.70;99.90
13346;DHT22;6742;48.036;15.780;2022-10-31T07:01:49;10.70;99.90
13346;DHT22;6742;48.036;15.780;2022-10-31T07:04:16;10.60;99.90
13346;DHT22;6742;48.036;15.780;2022-10-31T07:06:44;10.60;99.90
13346;DHT22;6742;48.036;15.780;2022-10-31T07:09:11;10.60;99.90
13346;DHT22;6742;48.036;15.780;2022-10-31T07:11:37;10.60;99.90
13346;DHT22;6742;48.036;15.780;2022-10-31T07:14:04;10.60;99.90
13346;DHT22;6742;48.036;15.780;2022-10-31T07:16:31;10.60;99.90
13346;DHT22;6742;48.036;15.780;2022-10-31T07:18:57;10.70;99.90
13346;DHT22;6742;48.036;15.780;2022-10-31T07:21:24;10.70;99.90
13346;DHT22;6742;48.036;15.780;2022-10-31T07:23:52;10.80;99.90
13346;DHT22;6742;48.036;15.780;2022-10-31T07:26:19;10.90;99.90
13346;DHT22;6742;48.036;15.780;2022-10-31T07:28:45;11.00;99.90
13346;DHT22;6742;48.036;15.780;2022-10-31T07:31:13;11.10;99.90
13346;DHT22;6742;48.036;15.780;2022-10-31T07:33:39;11.20;99.90
13346;DHT22;6742;48.036;15.780;2022-10-31T07:36:06;11.20;99.90
13346;DHT22;6742;48.036;15.780;2022-10-31T07:38:33;11.20;99.90
13346;DHT22;6742;48.036;15.780;2022-10-31T07:41:01;11.30;99.90
13346;DHT22;6742;48.036;15.780;2022-10-31T07:43:28;11.40;99.90
13346;DHT22;6742;48.036;15.780;2022-10-31T07:45:54;11.40;99.90
13346;DHT22;6742;48.036;15.780;2022-10-31T07:48:21;11.50;99.90
13346;DHT22;6742;48.036;15.780;2022-10-31T07:50:48;11.70;99.90
13346;DHT22;6742;48.036;15.780;2022-10-31T07:53:15;12.00;99.90
13346;DHT22;6742;48.036;15.780;2022-10-31T07:55:42;12.40;99.90
13346;DHT22;6742;48.036;15.780;2022-10-31T07:58:11;12.70;99.90
13346;DHT22;6742;48.036;15.780;2022-10-31T08:00:38;13.00;99.90
13346;DHT22;6742;48.036;15.780;2022-10-31T08:03:06;13.20;99.90
13346;DHT22;6742;48.036;15.780;2022-10-31T08:05:33;13.30;99.90
13346;DHT22;6742;48.036;15.780;2022-10-31T08:08:00;13.50;99.90
13346;DHT22;6742;48.036;15.780;2022-10-31T08:10:30;13.70;99.90
13346;DHT22;6742;48.036;15.780;2022-10-31T08:12:57;13.80;99.90
13346;DHT22;6742;48.036;15.780;2022-10-31T08:15:29;13.90;99.90
13346;DHT22;6742;48.036;15.780;2022-10-31T08:17:56;13.90;99.90
13346;DHT22;6742;48.036;15.780;2022-10-31T08:20:23;14.20;99.90
13346;DHT22;6742;48.036;15.780;2022-10-31T08:22:56;14.70;99.90
13346;DHT22;6742;48.036;15.780;2022-10-31T08:25:23;15.20;99.90
13346;DHT22;6742;48.036;15.780;2022-10-31T08:27:50;15.60;99.90
13346;DHT22;6742;48.036;15.780;2022-10-31T08:30:17;15.90;99.90
13346;DHT22;6742;48.036;15.780;2022-10-31T08:32:45;16.10;99.90
13346;DHT22;6742;48.036;15.780;2022-10-31T08:35:12;16.30;99.90
13346;DHT22;6742;48.036;15.780;2022-10-31T08:37:41;16.40;99.90
13346;DHT22;6742;48.036;15.780;2022-10-31T08:40:09;16.60;99.90
13346;DHT22;6742;48.036;15.780;2022-10-31T08:42:36;16.70;99.90
13346;DHT22;6742;48.036;15.780;2022-10-31T08:45:03;16.80;99.90
13346;DHT22;6742;48.036;15.780;2022-10-31T08:47:30;17.00;99.90
13346;DHT22;6742;48.036;15.780;2022-10-31T08:49:58;17.10;99.90
13346;DHT22;6742;48.036;15.780;2022-10-31T08:52:24;17.20;99.90
13346;DHT22;6742;48.036;15.780;2022-10-31T08:54:51;17.30;99.90
13346;DHT22;6742;48.036;15.780;2022-10-31T08:57:18;17.40;99.90
13346;DHT22;6742;48.036;15.780;2022-10-31T08:59:48;17.40;99.90
13346;DHT22;6742;48.036;15.780;2022-10-31T09:02:14;17.40;99.90
13346;DHT22;6742;48.036;15.780;2022-10-31T09:04:41;17.50;99.90
13346;DHT22;6742;48.036;15.780;2022-10-31T09:07:09;17.60;99.90
13346;DHT22;6742;48.036;15.780;2022-10-31T09:09:36;17.50;99.90
13346;DHT22;6742;48.036;15.780;2022-10-31T09:12:03;17.50;99.90
13346;DHT22;6742;48.036;15.780;2022-10-31T09:14:29;17.60;99.90
13346;DHT22;6742;48.036;15.780;2022-10-31T09:16:56;17.60;99.90
13346;DHT22;6742;48.036;15.780;2022-10-31T09:19:23;17.60;99.90
13346;DHT22;6742;48.036;15.780;2022-10-31T09:21:53;17.70;99.90
13346;DHT22;6742;48.036;15.780;2022-10-31T09:24:21;17.60;99.90
13346;DHT22;6742;48.036;15.780;2022-10-31T09:26:48;17.70;99.90
13346;DHT22;6742;48.036;15.780;2022-10-31T09:29:15;17.60;99.90
13346;DHT22;6742;48.036;15.780;2022-10-31T09:31:41;17.70;99.90
13346;DHT22;6742;48.036;15.780;2022-10-31T09:34:08;17.90;99.90
13346;DHT22;6742;48.036;15.780;2022-10-31T09:36:35;17.90;99.90
13346;DHT22;6742;48.036;15.780;2022-10-31T09:39:01;18.20;99.90
13346;DHT22;6742;48.036;15.780;2022-10-31T09:41:31;18.30;99.90
13346;DHT22;6742;48.036;15.780;2022-10-31T09:44:08;18.40;99.90
13346;DHT22;6742;48.036;15.780;2022-10-31T09:46:42;18.40;99.90
13346;DHT22;6742;48.036;15.780;2022-10-31T09:52:09;18.60;99.90
13346;DHT22;6742;48.036;15.780;2022-10-31T09:54:37;18.80;99.90
13346;DHT22;6742;48.036;15.780;2022-10-31T09:57:07;18.70;99.90
13346;DHT22;6742;48.036;15.780;2022-10-31T09:59:39;18.70;99.90
13346;DHT22;6742;48.036;15.780;2022-10-31T10:02:09;18.90;99.90
13346;DHT22;6742;48.036;15.780;2022-10-31T10:04:41;18.90;99.90
13346;DHT22;6742;48.036;15.780;2022-10-31T10:07:13;19.00;99.90
13346;DHT22;6742;48.036;15.780;2022-10-31T10:09:40;19.10;99.90
13346;DHT22;6742;48.036;15.780;2022-10-31T10:12:13;19.20;99.90
13346;DHT22;6742;48.036;15.780;2022-10-31T10:15:07;19.40;99.90
13346;DHT22;6742;48.036;15.780;2022-10-31T10:17:45;19.50;99.90
13346;DHT22;6742;48.036;15.780;2022-10-31T10:20:26;19.50;99.90
13346;DHT22;6742;48.036;15.780;2022-10-31T10:23:22;19.80;99.90
13346;DHT22;6742;48.036;15.780;2022-10-31T10:25:53;19.80;99.90
13346;DHT22;6742;48.036;15.780;2022-10-31T10:28:28;19.80;99.90
13346;DHT22;6742;48.036;15.780;2022-10-31T10:31:02;19.80;99.90
13346;DHT22;6742;48.036;15.780;2022-10-31T10:33:33;19.90;99.90
13346;DHT22;6742;48.036;15.780;2022-10-31T10:36:05;20.20;99.90
13346;DHT22;6742;48.036;15.780;2022-10-31T10:38:37;20.40;99.90
13346;DHT22;6742;48.036;15.780;2022-10-31T10:41:10;20.60;99.90
13346;DHT22;6742;48.036;15.780;2022-10-31T10:43:41;20.70;99.90
13346;DHT22;6742;48.036;15.780;2022-10-31T10:46:18;20.70;99.90
13346;DHT22;6742;48.036;15.780;2022-10-31T10:49:12;20.60;99.90
13346;DHT22;6742;48.036;15.780;2022-10-31T10:51:45;20.50;99.90
13346;DHT22;6742;48.036;15.780;2022-10-31T10:54:42;20.40;99.90
13346;DHT22;6742;48.036;15.780;2022-10-31T10:57:25;20.30;99.90
13346;DHT22;6742;48.036;15.780;2022-10-31T10:59:55;20.40;99.90
13346;DHT22;6742;48.036;15.780;2022-10-31T11:02:24;20.50;99.90
13346;DHT22;6742;48.036;15.780;2022-10-31T11:04:53;20.40;99.90
13346;DHT22;6742;48.036;15.780;2022-10-31T11:07:21;20.40;99.90
13346;DHT22;6742;48.036;15.780;2022-10-31T11:09:48;20.60;99.90
13346;DHT22;6742;48.036;15.780;2022-10-31T11:12:20;20.50;99.90
13346;DHT22;6742;48.036;15.780;2022-10-31T11:14:55;20.50;99.90
13346;DHT22;6742;48.036;15.780;2022-10-31T11:17:28;20.50;99.90
13346;DHT22;6742;48.036;15.780;2022-10-31T11:20:24;20.40;99.90
13346;DHT22;6742;48.036;15.780;2022-10-31T11:23:03;20.50;99.90
13346;DHT22;6742;48.036;15.780;2022-10-31T11:25:30;20.60;99.90
13346;DHT22;6742;48.036;15.780;2022-10-31T11:28:02;20.50;99.90
13346;DHT22;6742;48.036;15.780;2022-10-31T11:30:35;20.50;99.90
13346;DHT22;6742;48.036;15.780;2022-10-31T11:33:17;20.50;99.90
13346;DHT22;6742;48.036;15.780;2022-10-31T11:35:46;20.50;99.90
13346;DHT22;6742;48.036;15.780;2022-10-31T11:38:17;20.50;99.90
13346;DHT22;6742;48.036;15.780;2022-10-31T11:40:52;20.50;99.90
13346;DHT22;6742;48.036;15.780;2022-10-31T11:43:20;20.50;99.90
13346;DHT22;6742;48.036;15.780;2022-10-31T11:45:49;20.50;99.90
13346;DHT22;6742;48.036;15.780;2022-10-31T11:48:18;20.50;99.90
13346;DHT22;6742;48.036;15.780;2022-10-31T11:50:49;20.50;99.90
13346;DHT22;6742;48.036;15.780;2022-10-31T11:53:26;20.60;99.90
13346;DHT22;6742;48.036;15.780;2022-10-31T11:56:03;20.70;99.90
13346;DHT22;6742;48.036;15.780;2022-10-31T11:58:31;20.80;99.90
13346;DHT22;6742;48.036;15.780;2022-10-31T12:01:02;20.80;99.90
13346;DHT22;6742;48.036;15.780;2022-10-31T12:03:48;20.90;99.90
13346;DHT22;6742;48.036;15.780;2022-10-31T12:06:24;20.80;99.90
13346;DHT22;6742;48.036;15.780;2022-10-31T12:08:54;20.80;99.90
13346;DHT22;6742;48.036;15.780;2022-10-31T12:11:37;20.80;99.90
13346;DHT22;6742;48.036;15.780;2022-10-31T12:14:15;20.70;99.90
13346;DHT22;6742;48.036;15.780;2022-10-31T12:16:56;20.70;99.90
13346;DHT22;6742;48.036;15.780;2022-10-31T12:19:34;20.70;99.90
13346;DHT22;6742;48.036;15.780;2022-10-31T12:22:12;20.70;99.90
13346;DHT22;6742;48.036;15.780;2022-10-31T12:24:55;20.70;99.90
13346;DHT22;6742;48.036;15.780;2022-10-31T12:27:33;20.70;99.90
13346;DHT22;6742;48.036;15.780;2022-10-31T12:30:13;20.60;99.90
13346;DHT22;6742;48.036;15.780;2022-10-31T12:32:57;20.70;99.90
13346;DHT22;6742;48.036;15.780;2022-10-31T12:35:36;20.70;99.90
13346;DHT22;6742;48.036;15.780;2022-10-31T12:38:26;20.60;99.90
13346;DHT22;6742;48.036;15.780;2022-10-31T12:41:14;20.60;99.90
13346;DHT22;6742;48.036;15.780;2022-10-31T12:43:56;20.60;99.90
13346;DHT22;6742;48.036;15.780;2022-10-31T12:46:32;20.50;99.90
13346;DHT22;6742;48.036;15.780;2022-10-31T12:52:21;20.50;99.90
13346;DHT22;6742;48.036;15.780;2022-10-31T12:55:08;20.40;99.90
13346;DHT22;6742;48.036;15.780;2022-10-31T12:57:39;20.30;99.90
13346;DHT22;6742;48.036;15.780;2022-10-31T13:00:12;20.30;99.90
13346;DHT22;6742;48.036;15.780;2022-10-31T13:02:44;20.40;99.90
13346;DHT22;6742;48.036;15.780;2022-10-31T13:05:17;20.40;99.90
13346;DHT22;6742;48.036;15.780;2022-10-31T13:07:52;20.30;99.90
13346;DHT22;6742;48.036;15.780;2022-10-31T13:10:24;20.30;99.90
13346;DHT22;6742;48.036;15.780;2022-10-31T13:12:55;20.30;99.90
13346;DHT22;6742;48.036;15.780;2022-10-31T13:15:26;20.30;99.90
13346;DHT22;6742;48.036;15.780;2022-10-31T13:17:56;20.20;99.90
13346;DHT22;6742;48.036;15.780;2022-10-31T13:20:27;20.20;99.90
13346;DHT22;6742;48.036;15.780;2022-10-31T13:23:00;20.20;99.90
13346;DHT22;6742;48.036;15.780;2022-10-31T13:25:33;20.20;99.90
13346;DHT22;6742;48.036;15.780;2022-10-31T13:28:08;20.20;99.90
13346;DHT22;6742;48.036;15.780;2022-10-31T13:30:39;20.10;99.90
13346;DHT22;6742;48.036;15.780;2022-10-31T13:33:14;20.10;99.90
13346;DHT22;6742;48.036;15.780;2022-10-31T13:35:48;20.00;99.90
13346;DHT22;6742;48.036;15.780;2022-10-31T13:38:23;20.10;99.90
13346;DHT22;6742;48.036;15.780;2022-10-31T13:40:56;20.20;99.90
13346;DHT22;6742;48.036;15.780;2022-10-31T13:43:31;20.20;99.90
13346;DHT22;6742;48.036;15.780;2022-10-31T16:29:26;15.30;99.90
13346;DHT22;6742;48.036;15.780;2022-10-31T16:31:54;15.30;99.90
13346;DHT22;6742;48.036;15.780;2022-10-31T16:34:22;15.20;99.90
13346;DHT22;6742;48.036;15.780;2022-10-31T16:52:23;14.40;99.90
13346;DHT22;6742;48.036;15.780;2022-10-31T16:54:50;14.40;99.90
13346;DHT22;6742;48.036;15.780;2022-10-31T16:57:23;14.40;99.90
13346;DHT22;6742;48.036;15.780;2022-10-31T17:12:50;14.10;99.90
13346;DHT22;6742;48.036;15.780;2022-10-31T17:20:28;14.00;99.90
13346;DHT22;6742;48.036;15.780;2022-10-31T17:25:31;13.80;99.90
13346;DHT22;6742;48.036;15.780;2022-10-31T17:35:42;13.50;99.90
13346;DHT22;6742;48.036;15.780;2022-10-31T17:38:10;13.50;99.90
13346;DHT22;6742;48.036;15.780;2022-10-31T17:40:41;13.50;99.90
13346;DHT22;6742;48.036;15.780;2022-10-31T17:43:08;13.40;99.90
13346;DHT22;6742;48.036;15.780;2022-10-31T17:53:19;13.40;99.90
13346;DHT22;6742;48.036;15.780;2022-10-31T17:55:46;13.30;99.90
13346;DHT22;6742;48.036;15.780;2022-10-31T17:58:13;13.20;99.90
13346;DHT22;6742;48.036;15.780;2022-10-31T18:00:40;13.20;99.90
13346;DHT22;6742;48.036;15.780;2022-10-31T18:05:35;13.20;99.90
13346;DHT22;6742;48.036;15.780;2022-10-31T18:13:14;13.20;99.90
13346;DHT22;6742;48.036;15.780;2022-10-31T18:15:44;13.20;99.90
13346;DHT22;6742;48.036;15.780;2022-10-31T18:18:14;13.30;99.90
13346;DHT22;6742;48.036;15.780;2022-10-31T18:20:41;13.20;99.90
13346;DHT22;6742;48.036;15.780;2022-10-31T18:23:08;13.20;99.90
13346;DHT22;6742;48.036;15.780;2022-10-31T18:25:36;13.20;99.90
13346;DHT22;6742;48.036;15.780;2022-10-31T18:28:05;13.30;99.90
13346;DHT22;6742;48.036;15.780;2022-10-31T18:30:38;13.20;99.90
13346;DHT22;6742;48.036;15.780;2022-10-31T18:33:06;13.20;99.90
13346;DHT22;6742;48.036;15.780;2022-10-31T18:35:38;13.10;99.90
13346;DHT22;6742;48.036;15.780;2022-10-31T18:38:06;13.10;99.90
13346;DHT22;6742;48.036;15.780;2022-10-31T18:40:33;13.10;99.90
13346;DHT22;6742;48.036;15.780;2022-10-31T18:43:03;13.10;99.90
13346;DHT22;6742;48.036;15.780;2022-10-31T18:45:30;13.10;99.90
13346;DHT22;6742;48.036;15.780;2022-10-31T18:47:59;13.10;99.90
13346;DHT22;6742;48.036;15.780;2022-10-31T18:50:25;13.00;99.90
13346;DHT22;6742;48.036;15.780;2022-10-31T18:52:52;13.00;99.90
13346;DHT22;6742;48.036;15.780;2022-10-31T18:55:19;13.00;99.90
13346;DHT22;6742;48.036;15.780;2022-10-31T19:00:14;13.00;99.90
13346;DHT22;6742;48.036;15.780;2022-10-31T19:02:43;13.00;99.90
13346;DHT22;6742;48.036;15.780;2022-10-31T19:10:26;12.90;99.90
13346;DHT22;6742;48.036;15.780;2022-10-31T19:15:25;12.90;99.90
13346;DHT22;6742;48.036;15.780;2022-10-31T19:17:52;13.00;99.90
13346;DHT22;6742;48.036;15.780;2022-10-31T19:20:19;13.00;99.90
13346;DHT22;6742;48.036;15.780;2022-10-31T19:22:46;13.00;99.90
13346;DHT22;6742;48.036;15.780;2022-10-31T19:25:12;12.90;99.90
13346;DHT22;6742;48.036;15.780;2022-10-31T19:27:41;12.90;99.90
13346;DHT22;6742;48.036;15.780;2022-10-31T19:32:36;12.90;99.90
13346;DHT22;6742;48.036;15.780;2022-10-31T19:35:06;12.80;99.90
13346;DHT22;6742;48.036;15.780;2022-10-31T19:37:33;12.80;99.90
13346;DHT22;6742;48.036;15.780;2022-10-31T19:40:00;12.80;99.90
13346;DHT22;6742;48.036;15.780;2022-10-31T19:42:31;12.90;99.90
13346;DHT22;6742;48.036;15.780;2022-10-31T19:44:59;12.90;99.90